Time;durP1;ratioP1;P1;durP2;ratioP2;P2;SDS_P1;SDS_P2;PMS_P1;PMS_P2;Temp;Humidity;BMP_temperature;BMP_pressure;BME280_temperature;BME280_humidity;BME280_pressure;Samples;Min_cycle;Max_cycle;Signal;HPM_P1;HPM_P2
2023/12/28 00:00:26;;;;;;;1.90;1.50;;;22.30;37.40;;;;;;4986882;28;20054;-51
2023/12/28 00:02:53;;;;;;;2.17;1.30;;;22.30;37.40;;;;;;4980589;28;20050;-55
2023/12/28 00:05:21;;;;;;;2.05;1.35;;;22.30;37.50;;;;;;4984903;28;20054;-55
2023/12/28 00:07:56;;;;;;;2.53;1.30;;;22.30;37.60;;;;;;4985042;28;20436;-55
2023/12/28 00:10:24;;;;;;;2.85;1.30;;;22.30;37.60;;;;;;4980685;28;20059;-53
2023/12/28 00:12:51;;;;;;;2.95;1.40;;;22.40;37.60;;;;;;4981346;28;20497;-55
2023/12/28 00:15:18;;;;;;;2.30;1.27;;;22.30;37.50;;;;;;4981588;28;20058;-53
2023/12/28 00:17:46;;;;;;;2.75;1.40;;;22.40;37.50;;;;;;4980889;28;20500;-51
2023/12/28 00:20:13;;;;;;;1.85;1.40;;;22.40;37.50;;;;;;4988571;28;20051;-49
2023/12/28 00:22:40;;;;;;;1.35;1.08;;;22.50;37.50;;;;;;4982913;28;20046;-53
2023/12/28 00:25:09;;;;;;;1.73;1.40;;;22.50;37.40;;;;;;4987093;28;20053;-52
2023/12/28 00:27:37;;;;;;;2.22;1.20;;;22.50;37.40;;;;;;4981952;28;20341;-51
2023/12/28 00:30:06;;;;;;;3.95;1.40;;;22.50;37.30;;;;;;4982047;28;20794;-48
2023/12/28 00:32:33;;;;;;;2.78;1.23;;;22.50;37.30;;;;;;4985443;28;20073;-50
2023/12/28 00:35:00;;;;;;;2.28;1.30;;;22.50;37.20;;;;;;4985533;28;20054;-51
2023/12/28 00:37:27;;;;;;;2.30;1.17;;;22.60;37.20;;;;;;4982102;28;20050;-52
2023/12/28 00:39:55;;;;;;;1.80;1.10;;;22.60;37.20;;;;;;4986805;28;20062;-52
2023/12/28 00:42:23;;;;;;;2.17;1.20;;;22.50;37.20;;;;;;4984389;28;20415;-54
2023/12/28 00:44:52;;;;;;;2.72;1.30;;;22.60;37.20;;;;;;4983546;28;20054;-52
2023/12/28 00:47:19;;;;;;;2.67;1.25;;;22.50;37.20;;;;;;4981451;28;20050;-49
2023/12/28 00:49:46;;;;;;;2.00;1.20;;;22.60;37.20;;;;;;4982285;28;20051;-53
2023/12/28 00:52:14;;;;;;;2.13;1.20;;;22.50;37.10;;;;;;4964835;28;20520;-50
2023/12/28 00:54:41;;;;;;;1.75;1.23;;;22.50;37.10;;;;;;4983980;28;20058;-52
2023/12/28 00:57:08;;;;;;;2.42;1.27;;;22.50;37.10;;;;;;4977155;28;20050;-53
2023/12/28 00:59:37;;;;;;;1.80;1.23;;;22.50;37.10;;;;;;4983763;28;20073;-50
2023/12/28 01:02:04;;;;;;;1.58;1.13;;;22.50;37.10;;;;;;4989130;28;20050;-51
2023/12/28 01:04:31;;;;;;;1.20;1.00;;;22.50;37.20;;;;;;4979018;28;20118;-52
2023/12/28 01:07:01;;;;;;;2.10;1.10;;;22.40;37.20;;;;;;4984613;28;20050;-51
2023/12/28 01:09:29;;;;;;;1.85;1.05;;;22.40;37.20;;;;;;4980035;28;20047;-49
2023/12/28 01:11:56;;;;;;;1.15;1.05;;;22.40;37.20;;;;;;4980627;28;20725;-52
2023/12/28 01:14:23;;;;;;;1.67;1.10;;;22.40;37.20;;;;;;4977244;28;20051;-51
2023/12/28 01:16:52;;;;;;;1.67;1.00;;;22.40;37.20;;;;;;4979485;28;20058;-53
2023/12/28 01:19:19;;;;;;;1.90;1.00;;;22.30;37.30;;;;;;4981916;28;20065;-54
2023/12/28 01:21:46;;;;;;;1.77;0.90;;;22.40;37.30;;;;;;4982414;28;20054;-49
2023/12/28 01:24:13;;;;;;;3.72;1.00;;;22.30;37.30;;;;;;4976072;28;20051;-50
2023/12/28 01:26:40;;;;;;;1.30;0.90;;;22.30;37.40;;;;;;4978309;28;20496;-50
2023/12/28 01:29:08;;;;;;;1.88;1.10;;;22.30;37.40;;;;;;4983348;28;20055;-53
2023/12/28 01:31:35;;;;;;;1.48;1.17;;;22.30;37.40;;;;;;4984817;28;20311;-50
2023/12/28 01:34:04;;;;;;;1.20;0.88;;;22.20;37.40;;;;;;4980736;28;20061;-53
2023/12/28 01:36:31;;;;;;;2.35;1.33;;;22.20;37.30;;;;;;4980690;28;20043;-50
2023/12/28 01:38:58;;;;;;;1.42;0.95;;;22.20;37.30;;;;;;4975241;28;20051;-53
2023/12/28 01:41:25;;;;;;;1.20;0.73;;;22.20;37.30;;;;;;4979907;28;20595;-49
2023/12/28 01:43:53;;;;;;;1.77;0.95;;;22.20;37.30;;;;;;4980607;28;20059;-51
2023/12/28 01:46:22;;;;;;;1.80;1.23;;;22.10;37.30;;;;;;4985964;28;20061;-51
2023/12/28 01:48:51;;;;;;;1.38;0.90;;;22.10;37.30;;;;;;4984175;28;20054;-52
2023/12/28 01:51:21;;;;;;;1.85;1.25;;;22.10;37.40;;;;;;4981997;28;20051;-52
2023/12/28 01:53:50;;;;;;;1.10;1.00;;;22.00;37.40;;;;;;4982022;28;20400;-54
2023/12/28 01:56:18;;;;;;;1.25;0.88;;;22.10;37.70;;;;;;4985116;28;20055;-52
2023/12/28 01:58:50;;;;;;;1.08;0.90;;;22.00;37.70;;;;;;4980941;28;20500;-54
2023/12/28 02:01:18;;;;;;;1.35;0.73;;;22.10;37.80;;;;;;4983498;28;20054;-52
2023/12/28 02:03:46;;;;;;;2.30;1.00;;;22.10;37.90;;;;;;4981640;28;20057;-53
2023/12/28 02:06:16;;;;;;;1.85;0.80;;;22.10;37.90;;;;;;4979416;28;20394;-51
2023/12/28 02:08:44;;;;;;;3.00;0.90;;;22.10;37.90;;;;;;4977467;28;20054;-51
2023/12/28 02:11:11;;;;;;;1.02;0.80;;;22.20;37.90;;;;;;4977964;28;20062;-52
2023/12/28 02:13:38;;;;;;;1.35;0.90;;;22.20;37.90;;;;;;4985561;28;20056;-51
2023/12/28 02:16:13;;;;;;;1.92;1.05;;;22.20;37.90;;;;;;4980648;28;20047;-52
2023/12/28 02:18:45;;;;;;;0.77;0.65;;;22.30;37.90;;;;;;4982108;28;20046;-51
2023/12/28 02:21:13;;;;;;;1.88;0.77;;;22.30;37.90;;;;;;4978981;28;20081;-54
2023/12/28 02:23:48;;;;;;;1.17;0.85;;;22.30;37.80;;;;;;4977429;28;20051;-49
2023/12/28 02:26:16;;;;;;;1.25;0.75;;;22.30;37.80;;;;;;4987953;28;20057;-52
2023/12/28 02:28:45;;;;;;;0.90;0.75;;;22.30;37.80;;;;;;4981797;28;20065;-51
2023/12/28 02:31:17;;;;;;;1.92;0.85;;;22.30;37.80;;;;;;4976863;28;20485;-49
2023/12/28 02:33:51;;;;;;;1.35;0.95;;;22.30;37.70;;;;;;4978783;28;20055;-52
2023/12/28 02:36:21;;;;;;;1.20;0.90;;;22.30;37.70;;;;;;4985143;28;20051;-55
2023/12/28 02:38:50;;;;;;;0.85;0.80;;;22.30;37.70;;;;;;4985859;28;20053;-54
2023/12/28 02:41:20;;;;;;;0.95;0.77;;;22.30;37.70;;;;;;4984550;28;20054;-55
2023/12/28 02:43:48;;;;;;;1.05;0.90;;;22.30;37.70;;;;;;4983139;28;20061;-55
2023/12/28 02:46:15;;;;;;;1.10;0.70;;;22.40;37.70;;;;;;4989256;28;20517;-53
2023/12/28 02:48:43;;;;;;;0.98;0.80;;;22.30;37.70;;;;;;4986041;28;20058;-53
2023/12/28 02:51:10;;;;;;;0.70;0.70;;;22.30;37.70;;;;;;4979872;28;20058;-54
2023/12/28 02:53:37;;;;;;;1.00;0.80;;;22.30;37.70;;;;;;4983902;28;20524;-52
2023/12/28 02:56:05;;;;;;;0.88;0.70;;;22.40;37.80;;;;;;4984655;28;20053;-53
2023/12/28 02:58:34;;;;;;;1.02;0.55;;;22.30;37.80;;;;;;4974157;28;20416;-55
2023/12/28 03:01:01;;;;;;;1.20;0.82;;;22.30;37.70;;;;;;4985201;28;20059;-54
2023/12/28 03:03:29;;;;;;;1.45;0.73;;;22.30;37.70;;;;;;4985916;28;20065;-54
2023/12/28 03:05:56;;;;;;;1.08;0.70;;;22.30;37.70;;;;;;4980840;28;20055;-55
2023/12/28 03:08:23;;;;;;;0.73;0.60;;;22.30;37.70;;;;;;4982295;28;20070;-52
2023/12/28 03:10:50;;;;;;;1.23;0.90;;;22.20;37.70;;;;;;4986797;28;20054;-54
2023/12/28 03:13:17;;;;;;;1.17;0.80;;;22.20;37.70;;;;;;4982928;28;20082;-50
2023/12/28 03:15:46;;;;;;;1.25;0.77;;;22.20;37.70;;;;;;4983566;28;20050;-55
2023/12/28 03:18:13;;;;;;;1.15;0.80;;;22.20;37.70;;;;;;4983071;28;20420;-53
2023/12/28 03:20:40;;;;;;;3.33;0.80;;;22.20;37.70;;;;;;4985587;28;20412;-55
2023/12/28 03:23:08;;;;;;;0.90;0.70;;;22.20;37.70;;;;;;4987184;28;20054;-56
2023/12/28 03:25:35;;;;;;;0.77;0.70;;;22.20;37.80;;;;;;4981739;28;20057;-55
2023/12/28 03:28:02;;;;;;;0.90;0.80;;;22.10;37.70;;;;;;4987183;28;20046;-56
2023/12/28 03:30:29;;;;;;;0.90;0.68;;;22.10;37.70;;;;;;4986223;28;20065;-56
2023/12/28 03:32:58;;;;;;;0.85;0.63;;;22.10;37.70;;;;;;4985800;28;20069;-52
2023/12/28 03:35:25;;;;;;;1.55;0.90;;;22.10;37.80;;;;;;4981823;28;20057;-55
2023/12/28 03:37:52;;;;;;;0.50;0.45;;;22.10;37.80;;;;;;4982318;28;20047;-54
2023/12/28 03:40:20;;;;;;;1.13;0.57;;;22.10;37.90;;;;;;4987244;28;20050;-53
2023/12/28 03:42:47;;;;;;;0.93;0.70;;;22.10;38.00;;;;;;4988583;28;20497;-56
2023/12/28 03:45:14;;;;;;;1.67;0.77;;;22.10;38.00;;;;;;4987880;28;20117;-55
2023/12/28 03:47:41;;;;;;;1.10;0.80;;;22.10;38.00;;;;;;4982364;28;20097;-53
2023/12/28 03:50:10;;;;;;;0.40;0.40;;;22.20;38.10;;;;;;4984194;28;20066;-52
2023/12/28 03:52:38;;;;;;;0.85;0.50;;;22.20;38.10;;;;;;4985277;28;20065;-53
2023/12/28 03:55:05;;;;;;;1.13;0.80;;;22.30;38.10;;;;;;4981766;28;20065;-52
2023/12/28 03:57:33;;;;;;;1.00;0.70;;;22.30;38.10;;;;;;4979070;28;20046;-53
2023/12/28 04:00:00;;;;;;;1.17;0.75;;;22.30;38.10;;;;;;4981482;28;20058;-52
2023/12/28 04:02:30;;;;;;;1.05;0.73;;;22.30;38.10;;;;;;4987486;28;20062;-53
2023/12/28 04:04:58;;;;;;;1.25;0.80;;;22.30;38.00;;;;;;4982679;28;20053;-51
2023/12/28 04:07:27;;;;;;;1.45;0.70;;;22.40;38.00;;;;;;4980044;28;20057;-54
2023/12/28 04:09:56;;;;;;;1.75;0.90;;;22.40;38.00;;;;;;4978562;28;20065;-53
2023/12/28 04:12:23;;;;;;;1.55;0.82;;;22.40;38.00;;;;;;4982662;28;20066;-50
2023/12/28 04:14:50;;;;;;;1.58;0.73;;;22.40;38.00;;;;;;4984134;28;20054;-54
2023/12/28 04:17:17;;;;;;;1.02;0.70;;;22.40;37.90;;;;;;4983590;28;20046;-52
2023/12/28 04:19:44;;;;;;;0.88;0.63;;;22.40;37.90;;;;;;4982732;28;20528;-54
2023/12/28 04:22:12;;;;;;;2.53;0.60;;;22.40;37.90;;;;;;4978854;28;20065;-54
2023/12/28 04:24:40;;;;;;;2.17;0.90;;;22.40;37.90;;;;;;4983045;28;20054;-55
2023/12/28 04:27:07;;;;;;;2.60;0.88;;;22.50;37.70;;;;;;4976125;28;20046;-53
2023/12/28 04:29:36;;;;;;;5.28;1.27;;;22.40;37.60;;;;;;4984118;28;20085;-54
2023/12/28 04:32:04;;;;;;;2.85;0.90;;;22.40;37.50;;;;;;4985224;28;20046;-54
2023/12/28 04:34:31;;;;;;;10.65;1.23;;;22.40;37.60;;;;;;4978469;28;20403;-51
2023/12/28 04:36:58;;;;;;;4.38;1.25;;;22.40;37.70;;;;;;4978924;28;20046;-55
2023/12/28 04:39:25;;;;;;;2.35;1.10;;;22.40;37.70;;;;;;4978841;28;20054;-52
2023/12/28 04:41:54;;;;;;;3.88;1.10;;;22.40;37.70;;;;;;4978456;28;20058;-54
2023/12/28 04:44:21;;;;;;;1.73;0.98;;;22.40;37.70;;;;;;4994239;28;20053;-54
2023/12/28 04:46:49;;;;;;;1.25;0.80;;;22.30;37.60;;;;;;5005084;28;20049;-52
2023/12/28 04:49:16;;;;;;;4.35;1.23;;;22.30;37.60;;;;;;4995405;28;20058;-55
2023/12/28 04:51:44;;;;;;;3.45;1.15;;;22.30;37.70;;;;;;4975753;28;20496;-55
2023/12/28 04:54:11;;;;;;;0.88;0.80;;;22.30;37.70;;;;;;4982753;28;20066;-55
2023/12/28 04:56:38;;;;;;;1.97;1.10;;;22.30;37.70;;;;;;4982310;28;20073;-58
2023/12/28 04:59:07;;;;;;;1.38;0.88;;;22.30;37.70;;;;;;4984377;28;20056;-56
2023/12/28 05:01:34;;;;;;;1.90;0.98;;;22.30;37.70;;;;;;4983073;28;20072;-53
2023/12/28 05:04:01;;;;;;;1.15;1.00;;;22.30;37.70;;;;;;4986612;28;20054;-54
2023/12/28 05:06:29;;;;;;;1.45;0.82;;;22.20;37.70;;;;;;4980842;28;20493;-55
2023/12/28 05:08:56;;;;;;;2.10;1.10;;;22.20;37.70;;;;;;4984799;28;20050;-55
2023/12/28 05:11:23;;;;;;;2.90;1.20;;;22.20;37.80;;;;;;4984301;28;20497;-56
2023/12/28 05:13:51;;;;;;;2.13;1.30;;;22.20;37.80;;;;;;4982068;28;20077;-56
2023/12/28 05:16:19;;;;;;;1.58;1.13;;;22.20;37.80;;;;;;4983827;28;20065;-56
2023/12/28 05:18:47;;;;;;;2.88;1.27;;;22.10;37.80;;;;;;4989925;28;20060;-55
2023/12/28 05:21:14;;;;;;;1.75;1.10;;;22.10;37.90;;;;;;4988406;28;20408;-56
2023/12/28 05:23:41;;;;;;;2.50;1.27;;;22.20;38.00;;;;;;4981185;28;20046;-56
2023/12/28 05:26:09;;;;;;;2.13;1.27;;;22.10;38.00;;;;;;4980957;28;20058;-56
2023/12/28 05:28:36;;;;;;;1.13;1.00;;;22.20;38.10;;;;;;4979889;28;20057;-56
2023/12/28 05:31:03;;;;;;;2.40;1.20;;;22.20;38.10;;;;;;4985605;28;20054;-55
2023/12/28 05:33:32;;;;;;;1.25;0.88;;;22.20;38.20;;;;;;4980489;28;20062;-54
2023/12/28 05:35:59;;;;;;;6.18;1.30;;;22.30;38.20;;;;;;4983978;28;20078;-58
2023/12/28 05:38:27;;;;;;;5.30;1.40;;;22.30;38.30;;;;;;4987748;28;20050;-56
2023/12/28 05:40:56;;;;;;;2.40;1.20;;;22.40;38.30;;;;;;4981829;28;20137;-55
2023/12/28 05:43:23;;;;;;;7.70;1.20;;;22.40;38.20;;;;;;4984254;28;20058;-55
2023/12/28 05:45:50;;;;;;;4.28;1.20;;;22.40;38.20;;;;;;4981476;28;20412;-56
2023/12/28 05:48:18;;;;;;;3.25;1.30;;;22.50;38.30;;;;;;4979143;28;20050;-55
2023/12/28 05:50:46;;;;;;;5.43;1.23;;;22.50;38.20;;;;;;4980309;28;20069;-57
2023/12/28 05:53:14;;;;;;;5.25;1.02;;;22.50;38.10;;;;;;4981114;28;20057;-56
2023/12/28 05:55:41;;;;;;;2.97;1.20;;;22.50;38.10;;;;;;4977796;28;20061;-56
2023/12/28 05:58:08;;;;;;;6.15;3.78;;;22.60;38.10;;;;;;4975995;28;20054;-55
2023/12/28 06:00:36;;;;;;;50.00;27.35;;;22.60;38.00;;;;;;4978139;28;20408;-53
2023/12/28 06:03:04;;;;;;;82.05;29.67;;;22.60;37.80;;;;;;4983877;28;20050;-55
2023/12/28 06:05:31;;;;;;;40.58;17.90;;;22.60;37.80;;;;;;4982696;28;20065;-55
2023/12/28 06:08:00;;;;;;;28.45;14.05;;;22.60;37.90;;;;;;4979096;28;20055;-57
2023/12/28 06:10:27;;;;;;;18.40;10.93;;;22.60;37.90;;;;;;4983615;28;20416;-51
2023/12/28 06:12:54;;;;;;;16.33;10.52;;;22.60;38.00;;;;;;4977402;28;20058;-57
2023/12/28 06:15:21;;;;;;;15.15;9.13;;;22.60;38.10;;;;;;4981595;28;20443;-55
2023/12/28 06:17:49;;;;;;;16.77;7.55;;;22.70;38.10;;;;;;4985052;28;20046;-56
2023/12/28 06:20:16;;;;;;;36.58;8.07;;;22.70;38.10;;;;;;4989383;28;20058;-57
2023/12/28 06:22:47;;;;;;;16.85;7.03;;;22.80;38.10;;;;;;4986394;28;20416;-57
2023/12/28 06:25:16;;;;;;;20.98;6.65;;;22.90;38.10;;;;;;4994613;28;20054;-56
2023/12/28 06:27:44;;;;;;;13.20;5.78;;;22.90;38.00;;;;;;4982929;28;20050;-56
2023/12/28 06:30:12;;;;;;;9.65;5.88;;;22.90;37.90;;;;;;4989578;28;20067;-53
2023/12/28 06:32:39;;;;;;;11.55;5.88;;;23.00;37.90;;;;;;4984506;28;20065;-56
2023/12/28 06:35:07;;;;;;;10.05;5.72;;;23.00;37.90;;;;;;4987644;28;20050;-55
2023/12/28 06:37:34;;;;;;;8.60;4.82;;;23.00;37.90;;;;;;4986793;28;20503;-55
2023/12/28 06:40:02;;;;;;;12.00;4.13;;;23.00;37.70;;;;;;4990317;28;20057;-55
2023/12/28 06:42:31;;;;;;;13.73;5.25;;;23.00;37.70;;;;;;4987278;28;20054;-55
2023/12/28 06:44:58;;;;;;;59.95;30.88;;;23.00;37.60;;;;;;4982791;28;20050;-54
2023/12/28 06:47:25;;;;;;;44.40;23.13;;;23.00;37.40;;;;;;4987494;28;20061;-55
2023/12/28 06:49:52;;;;;;;28.15;15.02;;;23.00;37.40;;;;;;4984578;28;20423;-56
2023/12/28 06:52:20;;;;;;;67.38;13.60;;;23.00;37.40;;;;;;4988802;28;20057;-58
2023/12/28 06:54:47;;;;;;;18.55;9.98;;;23.00;37.60;;;;;;4988412;28;20424;-60
2023/12/28 06:57:14;;;;;;;17.83;8.18;;;23.00;37.70;;;;;;4983884;28;20050;-60
2023/12/28 06:59:43;;;;;;;38.38;9.10;;;23.00;37.60;;;;;;4986279;28;20061;-60
2023/12/28 07:02:10;;;;;;;12.23;7.03;;;23.00;37.70;;;;;;4980066;28;20057;-61
2023/12/28 07:04:38;;;;;;;19.83;6.78;;;23.00;37.70;;;;;;4985711;28;20059;-60
2023/12/28 07:07:05;;;;;;;11.43;5.72;;;23.00;37.70;;;;;;4976541;28;20059;-61
2023/12/28 07:09:32;;;;;;;19.70;6.72;;;22.90;37.70;;;;;;4981855;28;20054;-60
2023/12/28 07:11:59;;;;;;;15.13;5.30;;;22.90;37.70;;;;;;4987162;28;20408;-60
2023/12/28 07:14:26;;;;;;;15.95;4.90;;;22.90;37.50;;;;;;4988930;28;20069;-61
2023/12/28 07:16:55;;;;;;;11.23;4.88;;;22.90;37.30;;;;;;4985948;28;20508;-59
2023/12/28 07:19:22;;;;;;;10.40;4.18;;;22.90;37.50;;;;;;4982122;28;20051;-58
2023/12/28 07:21:49;;;;;;;7.93;4.00;;;22.90;37.00;;;;;;4980951;28;20981;-58
2023/12/28 07:24:17;;;;;;;19.10;4.28;;;22.80;36.90;;;;;;4980386;28;20050;-58
2023/12/28 07:26:44;;;;;;;16.35;4.32;;;22.80;37.20;;;;;;4984523;28;20061;-60
2023/12/28 07:29:11;;;;;;;18.77;4.47;;;22.80;37.40;;;;;;4984269;28;20077;-59
2023/12/28 07:31:38;;;;;;;10.52;3.95;;;22.70;37.40;;;;;;4984366;28;20782;-59
2023/12/28 07:34:07;;;;;;;12.80;3.95;;;22.70;37.50;;;;;;4984379;28;21258;-58
2023/12/28 07:36:34;;;;;;;8.73;3.70;;;22.60;37.50;;;;;;4984191;28;20053;-52
2023/12/28 07:39:01;;;;;;;16.25;3.70;;;22.60;37.50;;;;;;4984231;28;20073;-57
2023/12/28 07:41:28;;;;;;;7.90;2.97;;;22.60;37.60;;;;;;4984639;28;20061;-56
2023/12/28 07:43:56;;;;;;;14.05;3.40;;;22.60;37.60;;;;;;4979519;28;20500;-54
2023/12/28 07:46:23;;;;;;;9.63;3.33;;;22.50;37.60;;;;;;4987310;28;20059;-55
2023/12/28 07:48:50;;;;;;;12.65;2.97;;;22.50;37.70;;;;;;4978096;28;20046;-52
2023/12/28 07:51:18;;;;;;;15.30;3.00;;;22.50;37.70;;;;;;4985068;28;20157;-53
2023/12/28 07:53:46;;;;;;;5.55;2.65;;;22.40;37.80;;;;;;4981452;28;20059;-55
2023/12/28 07:56:13;;;;;;;11.45;2.90;;;22.40;37.80;;;;;;4987542;28;20062;-54
2023/12/28 07:58:40;;;;;;;6.10;2.10;;;22.40;37.90;;;;;;4986552;28;20076;-58
2023/12/28 08:01:11;;;;;;;8.18;2.33;;;22.40;37.90;;;;;;4978550;28;20069;-56
2023/12/28 08:03:38;;;;;;;12.95;2.63;;;22.40;37.90;;;;;;4984746;28;20059;-56
2023/12/28 08:06:06;;;;;;;5.72;2.03;;;22.30;37.90;;;;;;4981074;28;20061;-57
2023/12/28 08:08:37;;;;;;;8.63;2.40;;;22.30;38.00;;;;;;4982359;28;20054;-57
2023/12/28 08:11:05;;;;;;;4.97;2.20;;;22.40;38.10;;;;;;4983212;28;20054;-56
2023/12/28 08:13:32;;;;;;;5.13;2.47;;;22.30;38.10;;;;;;4982081;28;20054;-55
2023/12/28 08:15:59;;;;;;;6.97;2.28;;;22.30;38.20;;;;;;4986324;28;20047;-55
2023/12/28 08:18:27;;;;;;;5.00;2.50;;;22.30;38.20;;;;;;4988708;28;20050;-56
2023/12/28 08:20:54;;;;;;;8.82;2.40;;;22.40;38.30;;;;;;4990665;28;20386;-56
2023/12/28 08:23:22;;;;;;;4.45;2.28;;;22.40;38.30;;;;;;4984144;28;20050;-57
2023/12/28 08:25:50;;;;;;;3.78;2.10;;;22.40;38.40;;;;;;4987864;28;20073;-57
2023/12/28 08:28:18;;;;;;;4.78;2.40;;;22.40;38.40;;;;;;4984866;28;20516;-53
2023/12/28 08:30:45;;;;;;;14.68;2.20;;;22.50;38.40;;;;;;4984451;28;20083;-57
2023/12/28 08:33:12;;;;;;;4.63;2.00;;;22.50;38.40;;;;;;4982683;28;20062;-58
2023/12/28 08:35:40;;;;;;;9.80;2.10;;;22.50;38.40;;;;;;4981916;28;20657;-54
2023/12/28 08:38:07;;;;;;;9.93;5.03;;;22.60;38.50;;;;;;4971656;28;20054;-57
2023/12/28 08:40:34;;;;;;;23.75;10.20;;;22.60;38.50;;;;;;4985588;28;20066;-57
2023/12/28 08:43:03;;;;;;;22.98;8.38;;;22.70;38.50;;;;;;4974914;28;20065;-62
2023/12/28 08:45:30;;;;;;;17.63;7.45;;;22.80;38.50;;;;;;4988864;28;20580;-58
2023/12/28 08:47:58;;;;;;;19.10;6.80;;;22.90;38.30;;;;;;4983870;28;20050;-56
2023/12/28 08:50:25;;;;;;;14.88;6.97;;;22.90;38.30;;;;;;4983387;28;20057;-55
2023/12/28 08:52:52;;;;;;;11.98;5.82;;;23.00;38.20;;;;;;4983889;28;20081;-57
2023/12/28 08:55:19;;;;;;;16.15;6.57;;;23.00;38.20;;;;;;4981997;28;20051;-57
2023/12/28 08:57:47;;;;;;;18.05;5.20;;;23.00;38.20;;;;;;4981157;28;20540;-59
2023/12/28 09:00:16;;;;;;;17.88;5.60;;;23.10;38.10;;;;;;4979116;28;20051;-56
2023/12/28 09:02:44;;;;;;;10.95;5.03;;;23.10;38.00;;;;;;4982090;28;20057;-58
2023/12/28 09:05:11;;;;;;;15.38;4.18;;;23.20;38.10;;;;;;4983241;28;20061;-58
2023/12/28 09:07:42;;;;;;;8.80;4.53;;;23.20;38.00;;;;;;4982441;28;21112;-57
2023/12/28 09:10:11;;;;;;;12.38;4.50;;;23.20;38.10;;;;;;4989870;28;20050;-57
2023/12/28 09:12:39;;;;;;;22.85;6.38;;;23.20;38.10;;;;;;4983267;28;20459;-53
2023/12/28 09:15:07;;;;;;;13.20;5.47;;;23.20;37.90;;;;;;4985862;28;20386;-55
2023/12/28 09:17:36;;;;;;;14.70;4.45;;;23.20;37.50;;;;;;4986496;28;20511;-55
2023/12/28 09:20:06;;;;;;;18.30;4.88;;;23.20;37.30;;;;;;4985721;28;20050;-57
2023/12/28 09:22:33;;;;;;;13.43;4.63;;;23.20;37.30;;;;;;4991629;28;20054;-57
2023/12/28 09:25:01;;;;;;;8.85;3.88;;;23.20;37.20;;;;;;4988913;28;20054;-58
2023/12/28 09:27:28;;;;;;;6.50;3.90;;;23.20;37.20;;;;;;4982990;28;20076;-54
2023/12/28 09:29:55;;;;;;;10.68;3.58;;;23.10;37.10;;;;;;4981702;28;20047;-53
2023/12/28 09:32:22;;;;;;;7.50;3.15;;;23.10;37.10;;;;;;4980456;28;20066;-54
2023/12/28 09:34:51;;;;;;;7.88;3.40;;;23.10;37.00;;;;;;4983113;28;20077;-54
2023/12/28 09:37:20;;;;;;;6.40;2.67;;;23.10;36.90;;;;;;4979849;28;20061;-54
2023/12/28 09:39:48;;;;;;;5.72;3.15;;;23.00;37.00;;;;;;4982213;28;20042;-58
2023/12/28 09:42:25;;;;;;;10.77;3.10;;;23.00;37.20;;;;;;4983863;28;20046;-57
2023/12/28 09:44:53;;;;;;;10.10;3.03;;;23.00;37.10;;;;;;4980144;28;20058;-59
2023/12/28 09:47:20;;;;;;;4.93;2.60;;;22.90;37.00;;;;;;4978821;28;20050;-57
2023/12/28 09:49:48;;;;;;;9.10;2.60;;;22.90;37.00;;;;;;4978814;28;20042;-58
2023/12/28 09:52:17;;;;;;;5.85;2.88;;;22.90;37.10;;;;;;4980681;28;20081;-58
2023/12/28 09:54:44;;;;;;;6.05;2.42;;;22.80;37.10;;;;;;4984073;28;20050;-58
2023/12/28 09:57:12;;;;;;;4.35;2.17;;;22.80;37.10;;;;;;4987127;28;20057;-57
2023/12/28 09:59:40;;;;;;;7.88;2.17;;;22.70;37.00;;;;;;4973295;28;20061;-58
2023/12/28 10:02:08;;;;;;;8.75;1.92;;;22.80;37.10;;;;;;4986318;28;20408;-58
2023/12/28 10:04:37;;;;;;;6.80;2.30;;;22.70;37.10;;;;;;4983025;28;20050;-57
2023/12/28 10:07:04;;;;;;;5.25;2.13;;;22.60;37.00;;;;;;4981994;28;20069;-54
2023/12/28 10:09:33;;;;;;;3.35;1.60;;;22.60;37.10;;;;;;4985951;28;20053;-58
2023/12/28 10:12:00;;;;;;;3.00;1.90;;;22.60;37.10;;;;;;4981384;28;20390;-57
2023/12/28 10:14:28;;;;;;;2.63;1.38;;;22.60;37.20;;;;;;4981531;28;20051;-58
2023/12/28 10:16:55;;;;;;;3.10;1.50;;;22.50;37.20;;;;;;4982840;28;20055;-56
2023/12/28 10:19:23;;;;;;;4.05;1.77;;;22.60;37.30;;;;;;4987365;28;20050;-58
2023/12/28 10:21:50;;;;;;;4.30;1.80;;;22.60;37.30;;;;;;4983706;28;20054;-56
2023/12/28 10:24:18;;;;;;;5.78;1.65;;;22.60;37.30;;;;;;4979863;28;20504;-58
2023/12/28 10:26:46;;;;;;;3.38;1.48;;;22.60;37.30;;;;;;4981318;28;20057;-54
2023/12/28 10:29:13;;;;;;;2.35;1.40;;;22.70;37.30;;;;;;4975846;28;20147;-58
2023/12/28 10:31:43;;;;;;;3.25;1.20;;;22.70;37.20;;;;;;4984967;28;20516;-58
2023/12/28 10:34:10;;;;;;;2.97;1.13;;;22.70;37.20;;;;;;4981182;28;20420;-58
2023/12/28 10:36:39;;;;;;;3.08;1.45;;;22.70;37.10;;;;;;4978626;28;20050;-56
2023/12/28 10:39:11;;;;;;;9.65;1.70;;;22.70;37.00;;;;;;4979382;28;20047;-59
2023/12/28 10:41:39;;;;;;;3.70;1.40;;;22.70;37.50;;;;;;4983060;28;20046;-61
2023/12/28 10:44:08;;;;;;;3.55;1.50;;;22.70;37.20;;;;;;4982920;28;20046;-59
2023/12/28 10:46:42;;;;;;;12.68;1.67;;;22.70;37.50;;;;;;4988832;28;20051;-62
2023/12/28 10:49:12;;;;;;;4.68;1.30;;;22.70;37.70;;;;;;4984168;28;20062;-61
2023/12/28 10:51:43;;;;;;;8.70;1.48;;;22.70;37.70;;;;;;4987277;28;20054;-59
2023/12/28 10:54:24;;;;;;;11.85;1.30;;;22.80;37.90;;;;;;4979430;28;20054;-57
2023/12/28 10:57:00;;;;;;;6.43;1.50;;;22.70;37.90;;;;;;4980534;28;20054;-59
2023/12/28 10:59:41;;;;;;;2.78;1.10;;;22.80;37.80;;;;;;4986960;28;20054;-57
2023/12/28 11:02:12;;;;;;;8.38;1.27;;;22.80;38.30;;;;;;4981965;28;20095;-57
2023/12/28 11:04:43;;;;;;;4.63;1.35;;;22.80;37.90;;;;;;4985732;28;20065;-55
2023/12/28 11:07:12;;;;;;;8.30;1.20;;;22.70;37.80;;;;;;4986175;28;20054;-58
2023/12/28 11:09:42;;;;;;;4.82;1.70;;;22.70;37.80;;;;;;4981806;28;20054;-56
2023/12/28 11:12:10;;;;;;;7.68;2.00;;;22.70;37.90;;;;;;4984846;28;20062;-56
2023/12/28 11:14:40;;;;;;;5.45;1.30;;;22.70;38.00;;;;;;4985292;28;20057;-56
2023/12/28 11:17:07;;;;;;;11.13;1.52;;;22.70;38.00;;;;;;4977334;28;20508;-55
2023/12/28 11:19:36;;;;;;;12.00;1.90;;;22.70;38.00;;;;;;4990024;28;20059;-58
2023/12/28 11:22:05;;;;;;;10.48;1.10;;;22.60;38.00;;;;;;4981427;28;20050;-58
2023/12/28 11:24:34;;;;;;;9.20;1.73;;;22.60;38.00;;;;;;4982486;28;20054;-56
2023/12/28 11:27:06;;;;;;;8.70;1.40;;;22.60;38.10;;;;;;4985490;28;20057;-55
2023/12/28 11:29:33;;;;;;;5.28;1.30;;;22.60;38.30;;;;;;4973995;28;20440;-56
2023/12/28 11:32:03;;;;;;;14.75;1.52;;;22.60;38.20;;;;;;4978434;28;20054;-56
2023/12/28 11:34:33;;;;;;;11.73;2.08;;;22.60;38.20;;;;;;4979882;28;20054;-58
2023/12/28 11:37:05;;;;;;;12.38;1.42;;;22.50;38.10;;;;;;4986299;28;20061;-58
2023/12/28 11:39:34;;;;;;;5.53;1.23;;;22.50;38.20;;;;;;4981128;28;20496;-58
2023/12/28 11:42:03;;;;;;;4.60;1.27;;;22.50;38.40;;;;;;4983833;28;20057;-53
2023/12/28 11:44:31;;;;;;;6.80;1.50;;;22.50;38.40;;;;;;4977704;28;20053;-58
2023/12/28 11:46:59;;;;;;;5.63;1.42;;;22.50;38.40;;;;;;4984459;28;20062;-59
2023/12/28 11:49:28;;;;;;;3.80;1.30;;;22.40;38.40;;;;;;4980137;28;20054;-60
2023/12/28 11:51:57;;;;;;;14.38;1.42;;;22.40;38.40;;;;;;4983837;28;20054;-56
2023/12/28 11:54:26;;;;;;;8.57;1.83;;;22.40;38.50;;;;;;4983979;28;20050;-55
2023/12/28 11:56:53;;;;;;;2.92;1.02;;;22.40;38.60;;;;;;4981344;28;20500;-56
2023/12/28 11:59:21;;;;;;;7.40;1.73;;;22.40;38.70;;;;;;4981451;28;20062;-58
2023/12/28 12:01:51;;;;;;;6.53;1.08;;;22.30;38.70;;;;;;4985402;28;20449;-58
2023/12/28 12:04:19;;;;;;;5.40;1.23;;;22.30;38.80;;;;;;4989348;28;20440;-56
2023/12/28 12:06:48;;;;;;;5.15;1.50;;;22.30;38.70;;;;;;4984962;28;20061;-57
2023/12/28 12:09:15;;;;;;;3.55;1.10;;;22.30;38.90;;;;;;4979999;28;20057;-58
2023/12/28 12:11:43;;;;;;;4.38;1.15;;;22.30;38.90;;;;;;4982676;28;20047;-58
2023/12/28 12:14:10;;;;;;;3.38;1.15;;;22.40;38.90;;;;;;4983415;28;20046;-57
2023/12/28 12:16:38;;;;;;;3.40;1.10;;;22.30;38.80;;;;;;4979834;28;20530;-59
2023/12/28 12:19:06;;;;;;;3.15;1.08;;;22.40;38.80;;;;;;4985211;28;20076;-58
2023/12/28 12:21:34;;;;;;;2.75;1.00;;;22.40;38.80;;;;;;4981023;28;20058;-56
2023/12/28 12:24:02;;;;;;;2.33;1.00;;;22.40;38.90;;;;;;4986140;28;20057;-58
2023/12/28 12:26:31;;;;;;;3.95;1.38;;;22.40;39.00;;;;;;4990621;28;20488;-58
2023/12/28 12:28:58;;;;;;;2.15;0.93;;;22.50;38.90;;;;;;4981124;28;20050;-58
2023/12/28 12:31:26;;;;;;;2.72;1.20;;;22.50;38.80;;;;;;4980183;28;20465;-57
2023/12/28 12:33:53;;;;;;;2.45;1.10;;;22.50;38.80;;;;;;4986726;28;20065;-57
2023/12/28 12:36:21;;;;;;;7.05;1.50;;;22.60;38.90;;;;;;4981320;28;20058;-57
2023/12/28 12:38:49;;;;;;;3.70;1.30;;;22.60;38.90;;;;;;4981851;28;20062;-57
2023/12/28 12:41:18;;;;;;;1.42;0.90;;;22.60;38.90;;;;;;4989549;28;20056;-58
2023/12/28 12:43:46;;;;;;;3.72;1.15;;;22.60;38.80;;;;;;4983014;28;20501;-58
2023/12/28 12:46:14;;;;;;;2.63;0.98;;;22.60;38.80;;;;;;4990816;28;20125;-58